Time;durP1;ratioP1;P1;durP2;ratioP2;P2;SDS_P1;SDS_P2;PMS_P1;PMS_P2;Temp;Humidity;BMP_temperature;BMP_pressure;BME280_temperature;BME280_humidity;BME280_pressure;Samples;Min_cycle;Max_cycle;Signal;HPM_P1;HPM_P2
2021/07/13 00:01:15;;;;;;;0.20;0.20;;;;;;;;;;4985088;28;20026;-76
2021/07/13 00:03:41;;;;;;;0.30;0.20;;;;;;;;;;4982231;28;20109;-76
2021/07/13 00:06:06;;;;;;;0.15;0.15;;;;;;;;;;4986479;28;20033;-76
2021/07/13 00:08:31;;;;;;;0.20;0.20;;;;;;;;;;4984862;28;20033;-76
2021/07/13 00:10:57;;;;;;;0.20;0.20;;;;;;;;;;4964625;28;20126;-76
2021/07/13 00:13:22;;;;;;;0.20;0.20;;;;;;;;;;4985933;28;20030;-76
2021/07/13 00:15:48;;;;;;;0.20;0.20;;;;;;;;;;4978716;28;20058;-76
2021/07/13 00:18:13;;;;;;;0.20;0.20;;;;;;;;;;4968110;28;20034;-76
2021/07/13 00:20:39;;;;;;;0.20;0.20;;;;;;;;;;4985143;28;20080;-76
2021/07/13 00:23:04;;;;;;;0.20;0.20;;;;;;;;;;4960620;28;20022;-76
2021/07/13 00:25:32;;;;;;;0.20;0.20;;;;;;;;;;4976866;28;20121;-76
2021/07/13 00:27:57;;;;;;;0.20;0.20;;;;;;;;;;4972843;28;20038;-77
2021/07/13 00:30:23;;;;;;;0.20;0.20;;;;;;;;;;4988198;28;20508;-77
2021/07/13 00:32:49;;;;;;;0.20;0.20;;;;;;;;;;4981833;28;20030;-77
2021/07/13 00:35:15;;;;;;;0.30;0.30;;;;;;;;;;4976873;28;20452;-77
2021/07/13 00:37:43;;;;;;;0.20;0.20;;;;;;;;;;4985218;28;20109;-77
2021/07/13 00:40:10;;;;;;;0.15;0.15;;;;;;;;;;4976348;28;20050;-76
2021/07/13 00:42:35;;;;;;;0.20;0.20;;;;;;;;;;4984640;28;20500;-76
2021/07/13 00:45:02;;;;;;;0.20;0.20;;;;;;;;;;4980339;28;20468;-76
2021/07/13 00:47:27;;;;;;;0.20;0.20;;;;;;;;;;4975824;28;20038;-76
2021/07/13 00:49:53;;;;;;;0.20;0.20;;;;;;;;;;4984393;28;20042;-76
2021/07/13 00:52:19;;;;;;;0.30;0.30;;;;;;;;;;4971396;28;20038;-76
2021/07/13 00:54:47;;;;;;;0.20;0.20;;;;;;;;;;4979218;28;20460;-77
2021/07/13 00:57:13;;;;;;;0.20;0.20;;;;;;;;;;4970277;28;20409;-76
2021/07/13 00:59:39;;;;;;;0.20;0.20;;;;;;;;;;4986643;28;20034;-76
2021/07/13 01:02:06;;;;;;;0.20;0.20;;;;;;;;;;4976473;28;20446;-76
2021/07/13 01:04:31;;;;;;;0.13;0.13;;;;;;;;;;4973311;28;20041;-76
2021/07/13 01:06:57;;;;;;;0.20;0.20;;;;;;;;;;4968998;28;20031;-76
2021/07/13 01:09:38;;;;;;;0.30;0.30;;;;;;;;;;4973501;28;20074;-76
2021/07/13 01:12:22;;;;;;;0.20;0.20;;;;;;;;;;4984131;28;20035;-76
2021/07/13 01:14:52;;;;;;;0.20;0.20;;;;;;;;;;4962131;28;20051;-76
2021/07/13 01:17:22;;;;;;;0.20;0.20;;;;;;;;;;4985873;28;20025;-76
2021/07/13 01:20:03;;;;;;;0.20;0.20;;;;;;;;;;4978167;28;20031;-76
2021/07/13 01:22:39;;;;;;;0.20;0.20;;;;;;;;;;4974362;28;20096;-76
2021/07/13 01:25:04;;;;;;;0.30;0.30;;;;;;;;;;4965501;28;20034;-76
2021/07/13 01:27:39;;;;;;;0.20;0.20;;;;;;;;;;4979830;28;20027;-76
2021/07/13 01:30:08;;;;;;;0.20;0.20;;;;;;;;;;4960699;28;20031;-77
2021/07/13 01:32:34;;;;;;;0.20;0.20;;;;;;;;;;4982434;28;20042;-76
2021/07/13 01:35:01;;;;;;;0.20;0.20;;;;;;;;;;4969389;28;20038;-76
2021/07/13 01:37:27;;;;;;;0.20;0.20;;;;;;;;;;4968851;28;20026;-75
2021/07/13 01:39:54;;;;;;;0.20;0.20;;;;;;;;;;4971452;28;20164;-75
2021/07/13 01:42:20;;;;;;;0.20;0.20;;;;;;;;;;4983949;28;20027;-75
2021/07/13 01:44:46;;;;;;;0.20;0.20;;;;;;;;;;4976636;28;20634;-75
2021/07/13 01:47:12;;;;;;;0.30;0.30;;;;;;;;;;4986670;28;20380;-75
2021/07/13 01:49:38;;;;;;;0.30;0.30;;;;;;;;;;4967997;28;20023;-76
2021/07/13 01:52:04;;;;;;;0.20;0.20;;;;;;;;;;4960051;28;20050;-76
2021/07/13 01:54:32;;;;;;;0.20;0.20;;;;;;;;;;4981832;28;20022;-76
2021/07/13 01:56:58;;;;;;;0.20;0.20;;;;;;;;;;4984164;28;20066;-76
2021/07/13 01:59:25;;;;;;;0.30;0.30;;;;;;;;;;4967103;28;20043;-75
2021/07/13 02:01:53;;;;;;;0.20;0.20;;;;;;;;;;4980958;28;20027;-76
2021/07/13 02:04:19;;;;;;;0.20;0.20;;;;;;;;;;4982735;28;20030;-76
2021/07/13 02:06:44;;;;;;;0.20;0.20;;;;;;;;;;4989862;28;20038;-75
2021/07/13 02:09:14;;;;;;;0.20;0.20;;;;;;;;;;4986568;28;20034;-76
2021/07/13 02:11:47;;;;;;;0.20;0.20;;;;;;;;;;4967794;28;20030;-76
2021/07/13 02:14:15;;;;;;;0.20;0.20;;;;;;;;;;4982617;28;20055;-76
2021/07/13 02:16:42;;;;;;;0.20;0.20;;;;;;;;;;4978923;28;20493;-76
2021/07/13 02:19:08;;;;;;;0.20;0.20;;;;;;;;;;4983857;28;20133;-76
2021/07/13 02:21:34;;;;;;;0.10;0.10;;;;;;;;;;4977929;28;20076;-76
2021/07/13 02:24:04;;;;;;;0.10;0.10;;;;;;;;;;5011161;28;20053;-75
2021/07/13 02:26:33;;;;;;;0.20;0.20;;;;;;;;;;4992090;28;20035;-76
2021/07/13 02:29:04;;;;;;;0.20;0.20;;;;;;;;;;4977046;28;20085;-76
2021/07/13 02:31:35;;;;;;;0.20;0.20;;;;;;;;;;4990345;28;20541;-76
2021/07/13 02:34:06;;;;;;;0.30;0.30;;;;;;;;;;4978222;28;20034;-75
2021/07/13 02:36:34;;;;;;;0.10;0.10;;;;;;;;;;4993122;28;20037;-76
2021/07/13 02:39:00;;;;;;;0.20;0.20;;;;;;;;;;4996924;28;20105;-75
2021/07/13 02:41:26;;;;;;;0.20;0.20;;;;;;;;;;4994439;28;20053;-75
2021/07/13 02:43:52;;;;;;;0.20;0.20;;;;;;;;;;5002891;28;20096;-75
2021/07/13 02:46:18;;;;;;;0.20;0.20;;;;;;;;;;5002131;28;20038;-76
2021/07/13 02:48:44;;;;;;;0.20;0.20;;;;;;;;;;4991008;28;20130;-76
2021/07/13 02:51:13;;;;;;;0.20;0.20;;;;;;;;;;4997947;28;20051;-75
2021/07/13 02:53:38;;;;;;;0.20;0.20;;;;;;;;;;4999153;28;20034;-75
2021/07/13 02:56:05;;;;;;;0.20;0.20;;;;;;;;;;4988994;28;20026;-75
2021/07/13 02:58:31;;;;;;;;;;;;;;;;;;4996338;28;20073;-74
2021/07/13 03:00:56;;;;;;;0.20;0.20;;;;;;;;;;4989112;28;19909;-74
2021/07/13 03:03:22;;;;;;;0.35;0.35;;;;;;;;;;4980675;28;20034;-74
2021/07/13 03:05:49;;;;;;;0.28;0.28;;;;;;;;;;4984155;28;20030;-74
2021/07/13 03:08:14;;;;;;;0.52;0.40;;;;;;;;;;4983443;28;20057;-74
2021/07/13 03:10:40;;;;;;;0.30;0.30;;;;;;;;;;4969890;28;20066;-74
2021/07/13 03:13:05;;;;;;;0.20;0.20;;;;;;;;;;4983151;28;20438;-73
2021/07/13 03:15:31;;;;;;;0.40;0.40;;;;;;;;;;4985374;28;20038;-73
2021/07/13 03:17:57;;;;;;;0.30;0.30;;;;;;;;;;4986365;28;20305;-73
2021/07/13 03:20:23;;;;;;;0.30;0.30;;;;;;;;;;4987985;28;20034;-73
2021/07/13 03:22:49;;;;;;;0.30;0.30;;;;;;;;;;4982386;28;20034;-73
2021/07/13 03:25:43;;;;;;;0.30;0.30;;;;;;;;;;4978066;28;20037;-74
2021/07/13 03:28:10;;;;;;;0.20;0.20;;;;;;;;;;4973176;28;20177;-74
2021/07/13 03:30:36;;;;;;;0.30;0.30;;;;;;;;;;4992073;28;20154;-74
2021/07/13 03:33:04;;;;;;;0.30;0.30;;;;;;;;;;4983890;28;20031;-74
2021/07/13 03:35:32;;;;;;;0.30;0.30;;;;;;;;;;4968730;28;20043;-74
2021/07/13 03:38:02;;;;;;;0.30;0.30;;;;;;;;;;4989367;28;20482;-74
2021/07/13 03:40:30;;;;;;;0.20;0.20;;;;;;;;;;4989650;28;20042;-74
2021/07/13 03:42:56;;;;;;;0.20;0.20;;;;;;;;;;4986812;28;20038;-74
2021/07/13 03:45:21;;;;;;;0.20;0.20;;;;;;;;;;4987666;28;20535;-74
2021/07/13 03:47:51;;;;;;;0.30;0.30;;;;;;;;;;4978254;28;20122;-73
2021/07/13 03:50:17;;;;;;;0.20;0.20;;;;;;;;;;4981451;28;20026;-74
2021/07/13 03:52:43;;;;;;;0.30;0.30;;;;;;;;;;4981552;28;20026;-74
2021/07/13 03:55:09;;;;;;;0.30;0.30;;;;;;;;;;4975096;28;20080;-74
2021/07/13 03:57:37;;;;;;;0.40;0.40;;;;;;;;;;4992586;28;20041;-74
2021/07/13 04:00:08;;;;;;;0.20;0.20;;;;;;;;;;4980740;28;20022;-74
2021/07/13 04:02:38;;;;;;;0.30;0.30;;;;;;;;;;4975711;28;20052;-74
2021/07/13 04:05:06;;;;;;;0.30;0.30;;;;;;;;;;4983320;28;20026;-74
2021/07/13 04:07:34;;;;;;;0.20;0.20;;;;;;;;;;4965892;28;20018;-74
2021/07/13 04:09:59;;;;;;;0.20;0.20;;;;;;;;;;4983941;28;20274;-74
2021/07/13 04:12:24;;;;;;;0.30;0.30;;;;;;;;;;4980057;28;20693;-74
2021/07/13 04:14:50;;;;;;;0.20;0.20;;;;;;;;;;4986031;28;20070;-74
2021/07/13 04:17:15;;;;;;;0.22;0.22;;;;;;;;;;4979944;28;20061;-74
2021/07/13 04:19:41;;;;;;;0.30;0.30;;;;;;;;;;4981838;28;20043;-74
2021/07/13 04:22:08;;;;;;;0.20;0.20;;;;;;;;;;4993773;28;20038;-74
2021/07/13 04:24:34;;;;;;;0.20;0.20;;;;;;;;;;4987844;28;20018;-74
2021/07/13 04:26:59;;;;;;;0.20;0.20;;;;;;;;;;4986393;28;20521;-74
2021/07/13 04:29:24;;;;;;;0.30;0.30;;;;;;;;;;4988020;28;20038;-74
2021/07/13 04:31:50;;;;;;;0.32;0.32;;;;;;;;;;4984343;28;20065;-74
2021/07/13 04:34:15;;;;;;;0.40;0.40;;;;;;;;;;4982172;28;20038;-74
2021/07/13 04:36:41;;;;;;;0.20;0.20;;;;;;;;;;4980728;28;20104;-74
2021/07/13 04:39:07;;;;;;;0.30;0.30;;;;;;;;;;4984266;28;20430;-74
2021/07/13 04:41:33;;;;;;;0.43;0.43;;;;;;;;;;4982106;28;20058;-74
2021/07/13 04:43:58;;;;;;;0.30;0.30;;;;;;;;;;4977146;28;20062;-74
2021/07/13 04:46:24;;;;;;;0.20;0.20;;;;;;;;;;4975050;28;20034;-74
2021/07/13 04:48:49;;;;;;;0.20;0.20;;;;;;;;;;4971676;28;20022;-74
2021/07/13 04:51:15;;;;;;;0.20;0.20;;;;;;;;;;4979401;28;20477;-75
2021/07/13 04:53:41;;;;;;;0.30;0.30;;;;;;;;;;4978992;28;20173;-74
2021/07/13 04:56:06;;;;;;;0.22;0.22;;;;;;;;;;4985090;28;20466;-75
2021/07/13 04:58:31;;;;;;;0.22;0.22;;;;;;;;;;4981759;28;20101;-75
2021/07/13 05:00:57;;;;;;;0.20;0.20;;;;;;;;;;4977465;28;20105;-74
2021/07/13 05:03:22;;;;;;;0.40;0.40;;;;;;;;;;4984311;28;20064;-74
2021/07/13 05:05:48;;;;;;;0.30;0.30;;;;;;;;;;4979387;28;20110;-74
2021/07/13 05:08:13;;;;;;;0.30;0.30;;;;;;;;;;4979927;28;20076;-74
2021/07/13 05:10:38;;;;;;;0.40;0.40;;;;;;;;;;4977574;28;20532;-74
2021/07/13 05:13:09;;;;;;;0.20;0.20;;;;;;;;;;4981235;28;20031;-74
2021/07/13 05:15:34;;;;;;;0.20;0.20;;;;;;;;;;4973406;28;20037;-74
2021/07/13 05:18:00;;;;;;;0.20;0.20;;;;;;;;;;4979407;28;20031;-74
2021/07/13 05:20:25;;;;;;;0.20;0.20;;;;;;;;;;4976306;28;20071;-74
2021/07/13 05:22:57;;;;;;;0.30;0.30;;;;;;;;;;4977352;28;20047;-74
2021/07/13 05:25:25;;;;;;;0.20;0.20;;;;;;;;;;4979015;28;20027;-74
2021/07/13 05:27:51;;;;;;;0.20;0.20;;;;;;;;;;4962755;28;20030;-74
2021/07/13 05:30:18;;;;;;;0.20;0.20;;;;;;;;;;4980613;28;20109;-74
2021/07/13 05:32:44;;;;;;;0.30;0.30;;;;;;;;;;4982612;28;20133;-74
2021/07/13 05:35:09;;;;;;;0.20;0.20;;;;;;;;;;4985309;28;20156;-74
2021/07/13 05:37:35;;;;;;;0.25;0.25;;;;;;;;;;4964299;28;20035;-77
2021/07/13 05:40:03;;;;;;;0.30;0.30;;;;;;;;;;4984334;28;20453;-76
2021/07/13 05:42:29;;;;;;;0.30;0.30;;;;;;;;;;4981137;28;20142;-77
2021/07/13 05:44:55;;;;;;;0.20;0.20;;;;;;;;;;4974468;28;20045;-76
2021/07/13 05:47:21;;;;;;;0.25;0.25;;;;;;;;;;4962341;28;20023;-77
2021/07/13 05:49:46;;;;;;;0.20;0.20;;;;;;;;;;4981797;28;20030;-76
2021/07/13 05:52:12;;;;;;;0.20;0.20;;;;;;;;;;4980519;28;20042;-77
2021/07/13 05:54:37;;;;;;;0.30;0.30;;;;;;;;;;4963890;28;20047;-81
2021/07/13 05:57:02;;;;;;;0.30;0.30;;;;;;;;;;4978747;28;20038;-80
2021/07/13 05:59:28;;;;;;;0.20;0.20;;;;;;;;;;4988901;28;20034;-80
2021/07/13 06:01:53;;;;;;;0.20;0.20;;;;;;;;;;4990707;28;20035;-80
2021/07/13 06:04:18;;;;;;;0.20;0.20;;;;;;;;;;4993463;28;20061;-79
2021/07/13 06:06:44;;;;;;;0.20;0.20;;;;;;;;;;4991970;28;20034;-79
2021/07/13 06:09:12;;;;;;;0.20;0.20;;;;;;;;;;4983873;28;20030;-80
2021/07/13 06:11:37;;;;;;;0.30;0.30;;;;;;;;;;4987069;28;20038;-80
2021/07/13 06:14:02;;;;;;;0.20;0.20;;;;;;;;;;4987793;28;20049;-80
2021/07/13 06:16:28;;;;;;;0.20;0.20;;;;;;;;;;4976272;28;20508;-78
2021/07/13 06:18:53;;;;;;;0.43;0.30;;;;;;;;;;5001224;28;20022;-79
2021/07/13 06:21:18;;;;;;;0.20;0.20;;;;;;;;;;4972737;28;20035;-80
2021/07/13 06:23:44;;;;;;;0.20;0.20;;;;;;;;;;4993067;28;20030;-80
2021/07/13 06:26:09;;;;;;;0.20;0.20;;;;;;;;;;4994890;28;20027;-79
2021/07/13 06:28:34;;;;;;;0.20;0.20;;;;;;;;;;4973960;28;20577;-78
2021/07/13 06:31:00;;;;;;;0.28;0.28;;;;;;;;;;4976992;28;20057;-80
2021/07/13 06:33:26;;;;;;;0.30;0.30;;;;;;;;;;4966694;28;20173;-80
2021/07/13 06:35:53;;;;;;;0.20;0.20;;;;;;;;;;4993124;28;20408;-80
2021/07/13 06:38:19;;;;;;;0.22;0.22;;;;;;;;;;4993245;28;20046;-80
2021/07/13 06:40:44;;;;;;;0.20;0.20;;;;;;;;;;4971404;28;20034;-79
2021/07/13 06:43:10;;;;;;;0.30;0.30;;;;;;;;;;4964624;28;20755;-80
2021/07/13 06:45:38;;;;;;;0.20;0.20;;;;;;;;;;4981344;28;20049;-79
2021/07/13 06:48:04;;;;;;;0.30;0.30;;;;;;;;;;4985013;28;20556;-79
2021/07/13 06:50:31;;;;;;;0.20;0.20;;;;;;;;;;4971246;28;20161;-77
2021/07/13 06:52:57;;;;;;;0.20;0.20;;;;;;;;;;4980539;28;20052;-78
2021/07/13 06:55:22;;;;;;;0.20;0.20;;;;;;;;;;4973939;28;20477;-79
2021/07/13 06:57:48;;;;;;;0.20;0.20;;;;;;;;;;4983084;28;20027;-78
2021/07/13 07:00:15;;;;;;;0.20;0.20;;;;;;;;;;4962017;28;20568;-77
2021/07/13 07:02:41;;;;;;;0.20;0.20;;;;;;;;;;4991330;28;20034;-79
2021/07/13 07:05:07;;;;;;;0.28;0.28;;;;;;;;;;4970556;28;20045;-79
2021/07/13 07:07:32;;;;;;;0.20;0.20;;;;;;;;;;4980354;28;20030;-79
2021/07/13 07:09:57;;;;;;;0.20;0.20;;;;;;;;;;4976375;28;20018;-79
2021/07/13 07:12:23;;;;;;;0.22;0.22;;;;;;;;;;4986254;28;20030;-78
2021/07/13 07:14:48;;;;;;;0.20;0.20;;;;;;;;;;4977678;28;20033;-76
2021/07/13 07:17:14;;;;;;;0.20;0.20;;;;;;;;;;4986838;28;20034;-76
2021/07/13 07:19:39;;;;;;;0.20;0.20;;;;;;;;;;4979626;28;20057;-77
2021/07/13 07:22:07;;;;;;;0.25;0.25;;;;;;;;;;4982048;28;20052;-77
2021/07/13 07:24:32;;;;;;;0.20;0.20;;;;;;;;;;4979804;28;20488;-78
2021/07/13 07:26:57;;;;;;;0.20;0.20;;;;;;;;;;4983120;28;20865;-77
2021/07/13 07:29:23;;;;;;;0.30;0.22;;;;;;;;;;4968858;28;20050;-77
2021/07/13 07:31:50;;;;;;;0.20;0.20;;;;;;;;;;4985188;28;20041;-78
2021/07/13 07:34:16;;;;;;;0.20;0.20;;;;;;;;;;4966013;28;20045;-77
2021/07/13 07:36:41;;;;;;;0.20;0.20;;;;;;;;;;4985525;28;20117;-77
2021/07/13 07:39:07;;;;;;;0.20;0.20;;;;;;;;;;4984408;28;20026;-74
2021/07/13 07:41:33;;;;;;;0.20;0.20;;;;;;;;;;4974801;28;20517;-74
2021/07/13 07:43:59;;;;;;;0.30;0.30;;;;;;;;;;4983542;28;20045;-75
2021/07/13 07:46:24;;;;;;;0.20;0.20;;;;;;;;;;4982323;28;20755;-74
2021/07/13 07:48:50;;;;;;;0.20;0.20;;;;;;;;;;4978013;28;20027;-74
2021/07/13 07:51:18;;;;;;;0.35;0.28;;;;;;;;;;4967783;28;20417;-75
2021/07/13 07:53:43;;;;;;;0.20;0.20;;;;;;;;;;4973082;28;20039;-75
2021/07/13 07:56:11;;;;;;;0.40;0.30;;;;;;;;;;4979227;28;20026;-74
2021/07/13 07:58:38;;;;;;;0.20;0.20;;;;;;;;;;4967591;28;20054;-74
2021/07/13 08:01:04;;;;;;;0.20;0.20;;;;;;;;;;4978984;28;20031;-75
2021/07/13 08:03:31;;;;;;;0.20;0.20;;;;;;;;;;4980913;28;20039;-75
2021/07/13 08:05:57;;;;;;;0.20;0.20;;;;;;;;;;4976498;28;20862;-75
2021/07/13 08:08:23;;;;;;;0.20;0.20;;;;;;;;;;4976197;28;20038;-75
2021/07/13 08:10:48;;;;;;;0.30;0.30;;;;;;;;;;4975473;28;20778;-75
2021/07/13 08:13:14;;;;;;;0.25;0.25;;;;;;;;;;4983538;28;20035;-76
2021/07/13 08:15:39;;;;;;;0.28;0.28;;;;;;;;;;4981030;28;20533;-75
2021/07/13 08:18:05;;;;;;;0.30;0.30;;;;;;;;;;4974336;28;20080;-75
2021/07/13 08:20:30;;;;;;;0.40;0.40;;;;;;;;;;4978785;28;20504;-75
2021/07/13 08:22:55;;;;;;;0.20;0.20;;;;;;;;;;4980229;28;20049;-76
2021/07/13 08:25:23;;;;;;;0.20;0.20;;;;;;;;;;4981895;28;20034;-74
2021/07/13 08:27:49;;;;;;;0.30;0.30;;;;;;;;;;4983828;28;20310;-74
2021/07/13 08:30:15;;;;;;;0.30;0.30;;;;;;;;;;4977144;28;20502;-73
2021/07/13 08:32:42;;;;;;;0.20;0.20;;;;;;;;;;4978825;28;20033;-74
2021/07/13 08:35:08;;;;;;;0.30;0.30;;;;;;;;;;4972484;28;20026;-74
2021/07/13 08:37:35;;;;;;;0.20;0.20;;;;;;;;;;4981882;28;20064;-74
2021/07/13 08:40:00;;;;;;;0.30;0.30;;;;;;;;;;4975628;28;20129;-73
2021/07/13 08:42:26;;;;;;;0.28;0.28;;;;;;;;;;4976657;28;20611;-75
2021/07/13 08:44:55;;;;;;;0.30;0.30;;;;;;;;;;4976701;28;20043;-74
2021/07/13 08:47:20;;;;;;;0.30;0.30;;;;;;;;;;4978031;28;20033;-75
2021/07/13 08:49:46;;;;;;;0.30;0.30;;;;;;;;;;4985562;28;20030;-73
2021/07/13 08:52:12;;;;;;;0.20;0.20;;;;;;;;;;4983797;28;20042;-74
2021/07/13 08:54:37;;;;;;;0.28;0.28;;;;;;;;;;4967880;28;20073;-75
2021/07/13 08:57:03;;;;;;;0.30;0.30;;;;;;;;;;4977082;28;20086;-74
2021/07/13 08:59:28;;;;;;;0.20;0.20;;;;;;;;;;4984922;28;20030;-75
2021/07/13 09:01:53;;;;;;;0.20;0.20;;;;;;;;;;4982013;28;20034;-75
2021/07/13 09:04:19;;;;;;;0.20;0.20;;;;;;;;;;4978999;28;20074;-76
2021/07/13 09:07:07;;;;;;;0.20;0.20;;;;;;;;;;4984840;28;20404;-77
2021/07/13 09:09:39;;;;;;;0.20;0.20;;;;;;;;;;4981813;28;20043;-75
2021/07/13 09:12:06;;;;;;;0.20;0.20;;;;;;;;;;4978811;28;20464;-75
2021/07/13 09:14:50;;;;;;;0.35;0.35;;;;;;;;;;4989647;28;20100;-75
2021/07/13 09:17:32;;;;;;;0.20;0.20;;;;;;;;;;4978712;28;20050;-75
2021/07/13 09:20:04;;;;;;;0.30;0.30;;;;;;;;;;4978776;28;20026;-79
2021/07/13 09:22:30;;;;;;;0.20;0.20;;;;;;;;;;4987846;28;20034;-79
2021/07/13 09:24:56;;;;;;;0.22;0.20;;;;;;;;;;4986542;28;20039;-80
2021/07/13 09:27:22;;;;;;;0.30;0.30;;;;;;;;;;4985142;28;20046;-79
2021/07/13 09:29:49;;;;;;;0.30;0.30;;;;;;;;;;4990002;28;20034;-80
2021/07/13 09:32:14;;;;;;;0.20;0.20;;;;;;;;;;4968437;28;20122;-81
2021/07/13 09:35:07;;;;;;;0.25;0.25;;;;;;;;;;4976579;28;20124;-78
2021/07/13 09:37:38;;;;;;;0.40;0.40;;;;;;;;;;4964746;28;20049;-77
2021/07/13 09:40:05;;;;;;;0.30;0.30;;;;;;;;;;4989172;28;20031;-77
2021/07/13 09:42:32;;;;;;;0.20;0.20;;;;;;;;;;4988875;28;20030;-78
2021/07/13 09:45:16;;;;;;;0.20;0.20;;;;;;;;;;4990747;28;20816;-76
2021/07/13 09:47:42;;;;;;;0.20;0.20;;;;;;;;;;4986347;28;20089;-76
2021/07/13 09:50:12;;;;;;;0.25;0.25;;;;;;;;;;4997202;28;20031;-76
2021/07/13 09:52:40;;;;;;;0.30;0.30;;;;;;;;;;4952372;28;20048;-76
2021/07/13 09:55:15;;;;;;;0.20;0.20;;;;;;;;;;4967274;28;20042;-76
2021/07/13 09:57:41;;;;;;;0.20;0.20;;;;;;;;;;4975479;28;20618;-76
2021/07/13 10:00:07;;;;;;;0.20;0.20;;;;;;;;;;4965897;28;20038;-77
2021/07/13 10:02:32;;;;;;;0.30;0.30;;;;;;;;;;4980317;28;20034;-76
2021/07/13 10:05:00;;;;;;;0.20;0.20;;;;;;;;;;4968659;28;20046;-78
2021/07/13 10:07:26;;;;;;;0.20;0.20;;;;;;;;;;4999384;28;20076;-77
2021/07/13 10:09:53;;;;;;;0.20;0.20;;;;;;;;;;4969179;28;20463;-77
2021/07/13 10:12:19;;;;;;;0.20;0.20;;;;;;;;;;4974807;28;20045;-76
2021/07/13 10:14:46;;;;;;;0.30;0.30;;;;;;;;;;4974789;28;20026;-76
2021/07/13 10:17:12;;;;;;;0.30;0.30;;;;;;;;;;4958474;28;20904;-75
2021/07/13 10:19:48;;;;;;;0.35;0.35;;;;;;;;;;4970489;28;20072;-76
2021/07/13 10:22:14;;;;;;;0.32;0.32;;;;;;;;;;4971268;28;20857;-76
2021/07/13 10:24:42;;;;;;;0.40;0.40;;;;;;;;;;4971800;28;20116;-75
2021/07/13 10:27:12;;;;;;;0.30;0.30;;;;;;;;;;4973864;28;20053;-76
2021/07/13 10:29:40;;;;;;;0.30;0.30;;;;;;;;;;4976623;28;20092;-77
2021/07/13 10:32:18;;;;;;;0.30;0.30;;;;;;;;;;4999487;28;20030;-76
2021/07/13 10:34:56;;;;;;;0.30;0.30;;;;;;;;;;4984086;28;20034;-77
2021/07/13 10:37:31;;;;;;;0.30;0.30;;;;;;;;;;5000691;28;20184;-79
2021/07/13 10:39:58;;;;;;;0.30;0.30;;;;;;;;;;5016094;28;20080;-79
2021/07/13 10:42:42;;;;;;;0.40;0.40;;;;;;;;;;4991333;28;20173;-78
2021/07/13 10:45:13;;;;;;;0.40;0.40;;;;;;;;;;5016105;28;20843;-79
2021/07/13 10:47:58;;;;;;;0.30;0.30;;;;;;;;;;4998700;28;20093;-81
2021/07/13 10:50:32;;;;;;;0.30;0.30;;;;;;;;;;4994206;28;20081;-79
2021/07/13 10:53:05;;;;;;;0.35;0.35;;;;;;;;;;4984862;28;20575;-79
2021/07/13 10:55:30;;;;;;;0.30;0.30;;;;;;;;;;4998509;28;20034;-79
2021/07/13 10:58:19;;;;;;;0.30;0.30;;;;;;;;;;5002914;28;20030;-77
2021/07/13 11:00:51;;;;;;;0.28;0.28;;;;;;;;;;4964252;28;20034;-77
2021/07/13 11:03:29;;;;;;;0.40;0.40;;;;;;;;;;4979051;28;20562;-76
2021/07/13 11:06:04;;;;;;;0.30;0.30;;;;;;;;;;4990888;28;20046;-76
2021/07/13 11:08:39;;;;;;;0.30;0.30;;;;;;;;;;4994391;28;20061;-77
2021/07/13 11:11:06;;;;;;;0.38;0.38;;;;;;;;;;4996719;28;20025;-75
2021/07/13 11:13:32;;;;;;;0.30;0.30;;;;;;;;;;4978739;28;20033;-77
2021/07/13 11:15:59;;;;;;;0.40;0.40;;;;;;;;;;5001470;28;20041;-75
2021/07/13 11:18:29;;;;;;;0.30;0.30;;;;;;;;;;4986876;28;20038;-76
2021/07/13 11:20:54;;;;;;;0.40;0.40;;;;;;;;;;5004917;28;20508;-76
2021/07/13 11:23:26;;;;;;;0.30;0.30;;;;;;;;;;4995523;28;20045;-76
2021/07/13 11:26:02;;;;;;;0.30;0.30;;;;;;;;;;5001657;28;20149;-77
2021/07/13 11:28:27;;;;;;;0.30;0.30;;;;;;;;;;5009338;28;20029;-77
2021/07/13 11:30:54;;;;;;;0.20;0.20;;;;;;;;;;5002238;28;20026;-76
2021/07/13 11:33:25;;;;;;;0.20;0.20;;;;;;;;;;5004994;28;20038;-76
2021/07/13 11:35:51;;;;;;;0.20;0.20;;;;;;;;;;4996991;28;20842;-76
2021/07/13 11:38:37;;;;;;;0.30;0.30;;;;;;;;;;4978032;28;20108;-76
2021/07/13 11:41:11;;;;;;;0.28;0.28;;;;;;;;;;4994223;28;20144;-77
2021/07/13 11:43:37;;;;;;;0.20;0.20;;;;;;;;;;4985453;28;20038;-77
2021/07/13 11:46:17;;;;;;;0.30;0.30;;;;;;;;;;5005185;28;20183;-78
2021/07/13 11:48:56;;;;;;;0.22;0.22;;;;;;;;;;4998704;28;20058;-77
2021/07/13 11:51:25;;;;;;;0.20;0.20;;;;;;;;;;5012925;28;20026;-78
2021/07/13 11:54:00;;;;;;;0.57;0.22;;;;;;;;;;5011242;28;20035;-77
2021/07/13 11:56:28;;;;;;;0.30;0.30;;;;;;;;;;5006893;28;20025;-77
2021/07/13 11:58:54;;;;;;;0.20;0.20;;;;;;;;;;4993968;28;20105;-77
2021/07/13 12:01:23;;;;;;;0.20;0.20;;;;;;;;;;5003077;28;20125;-77
2021/07/13 12:03:56;;;;;;;0.20;0.20;;;;;;;;;;4985881;28;20038;-77
2021/07/13 12:06:23;;;;;;;0.20;0.20;;;;;;;;;;4992522;28;20040;-77
2021/07/13 12:08:53;;;;;;;0.20;0.20;;;;;;;;;;5013214;28;20571;-77
2021/07/13 12:11:21;;;;;;;0.20;0.20;;;;;;;;;;4998569;28;20037;-76
2021/07/13 12:13:46;;;;;;;0.35;0.30;;;;;;;;;;4993427;28;20037;-77
2021/07/13 12:16:19;;;;;;;0.20;0.20;;;;;;;;;;5004169;28;20042;-76
2021/07/13 12:18:45;;;;;;;0.30;0.30;;;;;;;;;;4997705;28;20069;-77
2021/07/13 12:21:15;;;;;;;0.20;0.20;;;;;;;;;;5000205;28;20057;-76
2021/07/13 12:23:44;;;;;;;0.20;0.20;;;;;;;;;;5006182;28;20152;-76
2021/07/13 12:26:28;;;;;;;0.20;0.20;;;;;;;;;;5000283;28;20720;-77
2021/07/13 12:29:12;;;;;;;0.75;0.35;;;;;;;;;;4973693;28;20033;-77
2021/07/13 12:31:50;;;;;;;0.20;0.20;;;;;;;;;;4988201;28;20053;-78
2021/07/13 12:34:15;;;;;;;0.20;0.20;;;;;;;;;;4981907;28;20030;-78
2021/07/13 12:36:41;;;;;;;0.20;0.20;;;;;;;;;;5002785;28;20026;-77
2021/07/13 12:39:22;;;;;;;0.25;0.20;;;;;;;;;;5002867;28;20083;-77
2021/07/13 12:41:58;;;;;;;0.20;0.20;;;;;;;;;;4987793;28;20108;-77
2021/07/13 12:44:28;;;;;;;0.22;0.22;;;;;;;;;;5002692;28;20092;-76
2021/07/13 12:46:53;;;;;;;0.20;0.20;;;;;;;;;;5002492;28;20609;-76
2021/07/13 12:49:19;;;;;;;0.20;0.20;;;;;;;;;;5006637;28;20113;-76
2021/07/13 12:51:44;;;;;;;0.20;0.20;;;;;;;;;;4989458;28;20184;-76
2021/07/13 12:54:12;;;;;;;0.30;0.30;;;;;;;;;;4999669;28;20053;-77
2021/07/13 12:56:37;;;;;;;0.28;0.28;;;;;;;;;;4997400;28;20109;-78
2021/07/13 12:59:08;;;;;;;0.20;0.20;;;;;;;;;;5004185;28;20113;-76
2021/07/13 13:01:35;;;;;;;0.20;0.20;;;;;;;;;;4998342;28;20467;-78
2021/07/13 13:04:13;;;;;;;0.20;0.20;;;;;;;;;;4985860;28;20045;-76
2021/07/13 13:06:39;;;;;;;0.20;0.20;;;;;;;;;;4997503;28;20087;-78
2021/07/13 13:09:08;;;;;;;0.20;0.20;;;;;;;;;;5002248;28;20034;-75
2021/07/13 13:11:37;;;;;;;0.20;0.20;;;;;;;;;;4984912;28;20018;-76
2021/07/13 13:14:06;;;;;;;0.38;0.30;;;;;;;;;;4986920;28;20041;-77
2021/07/13 13:16:34;;;;;;;0.20;0.20;;;;;;;;;;4999706;28;20041;-76
2021/07/13 13:19:00;;;;;;;0.30;0.30;;;;;;;;;;5000252;28;20040;-77
2021/07/13 13:21:26;;;;;;;0.20;0.20;;;;;;;;;;4971914;28;20030;-77
2021/07/13 13:23:52;;;;;;;0.20;0.20;;;;;;;;;;4997094;28;20498;-78
2021/07/13 13:26:18;;;;;;;0.20;0.20;;;;;;;;;;4985124;28;20363;-78
2021/07/13 13:28:46;;;;;;;0.20;0.20;;;;;;;;;;4990248;28;20081;-76
2021/07/13 13:31:11;;;;;;;0.20;0.20;;;;;;;;;;5004956;28;20092;-76
2021/07/13 13:33:39;;;;;;;0.30;0.30;;;;;;;;;;4976479;28;20030;-78
2021/07/13 13:36:16;;;;;;;0.20;0.20;;;;;;;;;;4974890;28;20135;-76
2021/07/13 13:38:45;;;;;;;0.20;0.20;;;;;;;;;;4998066;28;20057;-76
2021/07/13 13:41:11;;;;;;;0.30;0.30;;;;;;;;;;5005382;28;20461;-78
2021/07/13 13:43:36;;;;;;;0.20;0.20;;;;;;;;;;5007466;28;20040;-78
2021/07/13 13:46:02;;;;;;;0.20;0.20;;;;;;;;;;5004814;28;20029;-76
2021/07/13 13:48:28;;;;;;;0.20;0.20;;;;;;;;;;4987877;28;20026;-76
2021/07/13 13:50:53;;;;;;;0.30;0.30;;;;;;;;;;4999667;28;20121;-77
2021/07/13 13:53:21;;;;;;;0.20;0.20;;;;;;;;;;5003717;28;20034;-80
2021/07/13 13:55:46;;;;;;;0.20;0.20;;;;;;;;;;4991009;28;20057;-77
2021/07/13 13:58:12;;;;;;;0.20;0.20;;;;;;;;;;5006519;28;20512;-76
2021/07/13 14:00:37;;;;;;;0.20;0.20;;;;;;;;;;4991201;28;20092;-76
2021/07/13 14:03:02;;;;;;;0.20;0.20;;;;;;;;;;5017861;28;20038;-76
2021/07/13 14:05:28;;;;;;;0.20;0.20;;;;;;;;;;5014648;28;20117;-78
2021/07/13 14:07:53;;;;;;;0.20;0.20;;;;;;;;;;5005583;28;20018;-77
2021/07/13 14:10:23;;;;;;;0.30;0.30;;;;;;;;;;5005830;28;20034;-76
2021/07/13 14:12:48;;;;;;;0.30;0.30;;;;;;;;;;5006671;28;20097;-77
2021/07/13 14:15:17;;;;;;;0.20;0.20;;;;;;;;;;4990910;28;20467;-78
2021/07/13 14:17:44;;;;;;;0.20;0.20;;;;;;;;;;4992349;28;20770;-78
2021/07/13 14:20:10;;;;;;;0.10;0.10;;;;;;;;;;4990854;28;20136;-78
2021/07/13 14:22:36;;;;;;;0.10;0.10;;;;;;;;;;4995340;28;20053;-77
2021/07/13 14:25:03;;;;;;;0.10;0.10;;;;;;;;;;4994332;28;20088;-77
2021/07/13 14:27:28;;;;;;;0.35;0.10;;;;;;;;;;5006929;28;20192;-77
2021/07/13 14:29:56;;;;;;;0.10;0.10;;;;;;;;;;5010072;28;20061;-77
2021/07/13 14:32:22;;;;;;;0.20;0.20;;;;;;;;;;4991572;28;20503;-78
2021/07/13 14:34:48;;;;;;;0.10;0.10;;;;;;;;;;4983978;28;20034;-78
2021/07/13 14:37:13;;;;;;;0.10;0.10;;;;;;;;;;5004287;28;20021;-78
2021/07/13 14:39:38;;;;;;;0.10;0.10;;;;;;;;;;5010747;28;20125;-76
2021/07/13 14:42:06;;;;;;;0.20;0.20;;;;;;;;;;5000510;28;20022;-76
2021/07/13 14:44:32;;;;;;;0.10;0.10;;;;;;;;;;4992207;28;20025;-76
2021/07/13 14:46:57;;;;;;;0.15;0.15;;;;;;;;;;4998657;28;20049;-76